Time;durP1;ratioP1;P1;durP2;ratioP2;P2;SDS_P1;SDS_P2;PMS_P1;PMS_P2;Temp;Humidity;BMP_temperature;BMP_pressure;BME280_temperature;BME280_humidity;BME280_pressure;Samples;Min_cycle;Max_cycle;Signal;HPM_P1;HPM_P2
2022/04/26 03:36:36;;;;;;;17.17;7.10;;;;;;;6.82;100.00;99979.72;5100873;28;20035;-80
2022/04/26 03:39:02;;;;;;;19.15;7.53;;;;;;;6.87;100.00;99981.84;5099767;28;20037;-80
2022/04/26 03:41:28;;;;;;;14.40;7.28;;;;;;;6.82;100.00;99984.25;5101121;28;20114;-80
2022/04/26 03:43:53;;;;;;;15.27;6.47;;;;;;;6.87;100.00;99988.03;5100130;28;20027;-80
2022/04/26 03:46:18;;;;;;;14.37;6.67;;;;;;;6.94;100.00;99990.78;5099857;28;20134;-80
2022/04/26 03:48:44;;;;;;;17.37;6.40;;;;;;;6.79;100.00;99987.34;5098648;28;20286;-78
2022/04/26 03:51:09;;;;;;;17.77;6.73;;;;;;;6.76;100.00;99988.53;5098416;28;20484;-79
2022/04/26 03:53:34;;;;;;;19.03;7.57;;;;;;;6.77;100.00;99982.16;5099357;28;20027;-80
2022/04/26 03:56:00;;;;;;;14.40;6.27;;;;;;;6.71;100.00;99982.91;5099343;28;20020;-79
2022/04/26 03:58:26;;;;;;;13.33;5.67;;;;;;;6.76;100.00;99995.75;5079392;28;20027;-78
2022/04/26 04:00:52;;;;;;;16.73;7.50;;;;;;;6.79;100.00;99998.88;5097868;28;20023;-78
2022/04/26 04:03:17;;;;;;;17.38;7.38;;;;;;;6.77;100.00;100002.75;5097144;28;20032;-78
2022/04/26 04:05:42;;;;;;;16.43;6.77;;;;;;;6.60;100.00;100005.69;5099094;28;20039;-79
2022/04/26 04:08:08;;;;;;;11.93;5.83;;;;;;;6.59;99.87;100013.91;5098272;28;20048;-78
2022/04/26 04:10:33;;;;;;;13.80;6.05;;;;;;;6.59;100.00;100008.53;5097458;28;20039;-78
2022/04/26 04:12:58;;;;;;;14.70;6.47;;;;;;;6.61;100.00;100010.03;5097092;28;20044;-77
2022/04/26 04:15:24;;;;;;;18.67;6.37;;;;;;;6.52;99.60;100018.34;5097704;28;20028;-78
2022/04/26 04:17:49;;;;;;;13.70;5.90;;;;;;;6.56;99.08;100024.97;5097344;28;20032;-77
2022/04/26 04:20:15;;;;;;;12.63;6.30;;;;;;;6.56;100.00;100019.63;5097350;28;20266;-78
2022/04/26 04:22:41;;;;;;;14.05;5.80;;;;;;;6.57;99.82;100022.13;5096760;28;20036;-78
2022/04/26 04:25:06;;;;;;;13.25;5.57;;;;;;;6.55;99.86;100021.47;5096489;28;20050;-78
2022/04/26 04:27:32;;;;;;;13.43;5.88;;;;;;;6.53;99.20;100023.50;5096134;28;20367;-78
2022/04/26 04:30:02;;;;;;;16.37;6.80;;;;;;;6.44;98.93;100029.16;5097236;28;20081;-78
2022/04/26 04:32:28;;;;;;;15.18;6.20;;;;;;;6.43;99.15;100031.00;5097888;28;20282;-78
2022/04/26 04:34:53;;;;;;;12.30;5.38;;;;;;;6.42;99.24;100025.84;5097332;28;20024;-79
2022/04/26 04:37:19;;;;;;;15.63;6.77;;;;;;;6.46;98.99;100040.50;5096943;28;20029;-78
2022/04/26 04:39:44;;;;;;;18.37;5.47;;;;;;;6.40;99.03;100031.38;5099162;28;20565;-79
2022/04/26 04:42:09;;;;;;;14.90;6.03;;;;;;;6.46;99.30;100043.16;5097785;28;20548;-79
2022/04/26 04:44:35;;;;;;;15.07;7.20;;;;;;;6.45;98.57;100047.69;5079510;28;20390;-79
2022/04/26 04:47:00;;;;;;;12.18;5.97;;;;;;;6.39;98.10;100045.78;5080097;28;20454;-79
2022/04/26 04:49:26;;;;;;;12.83;6.03;;;;;;;6.38;98.18;100043.28;5100777;28;20055;-80
2022/04/26 04:51:51;;;;;;;13.02;6.28;;;;;;;6.45;98.63;100047.69;5100877;28;20081;-80
2022/04/26 04:54:17;;;;;;;13.57;6.20;;;;;;;6.34;97.67;100048.19;5100095;28;20036;-81
2022/04/26 04:56:42;;;;;;;14.77;6.23;;;;;;;6.39;97.99;100052.97;5099126;28;20471;-80
2022/04/26 04:59:07;;;;;;;12.40;4.80;;;;;;;6.46;98.30;100046.66;5101666;28;20100;-80
2022/04/26 05:01:33;;;;;;;11.63;5.10;;;;;;;6.51;98.16;100054.16;5101987;28;20418;-80
2022/04/26 05:03:58;;;;;;;11.20;5.55;;;;;;;6.51;97.81;100057.66;5079257;28;20059;-80
2022/04/26 05:06:24;;;;;;;11.63;5.35;;;;;;;6.65;97.63;100052.44;5078053;28;20032;-81
2022/04/26 05:08:49;;;;;;;13.17;5.87;;;;;;;6.45;96.64;100061.06;5078214;28;20456;-80
2022/04/26 05:11:14;;;;;;;12.07;5.90;;;;;;;6.45;96.69;100063.75;5077875;28;20051;-80
2022/04/26 05:13:40;;;;;;;13.80;5.57;;;;;;;6.45;97.54;100065.63;5096086;28;20028;-80
2022/04/26 05:16:06;;;;;;;15.65;6.03;;;;;;;6.55;96.68;100072.31;5078528;28;20458;-80
2022/04/26 05:18:31;;;;;;;16.13;7.25;;;;;;;6.56;96.65;100071.31;5096714;28;20026;-80
2022/04/26 05:20:56;;;;;;;11.80;5.60;;;;;;;6.51;96.79;100076.38;5097667;28;20070;-80
2022/04/26 05:26:05;;;;;;;15.82;5.68;;;;;;;6.56;97.24;100076.66;5096112;28;20085;-80
2022/04/26 05:28:31;;;;;;;11.63;5.80;;;;;;;6.58;97.03;100079.16;5079000;28;20036;-79
2022/04/26 05:30:56;;;;;;;12.20;5.50;;;;;;;6.58;97.10;100085.34;5078073;28;20127;-79
2022/04/26 05:33:22;;;;;;;11.43;5.20;;;;;;;6.56;96.70;100082.03;5077814;28;20034;-79
2022/04/26 05:35:48;;;;;;;13.10;5.68;;;;;;;6.64;95.90;100078.38;5078155;28;20040;-80
2022/04/26 05:38:15;;;;;;;13.18;5.00;;;;;;;6.67;95.71;100077.19;5079018;28;20383;-80
2022/04/26 05:40:41;;;;;;;11.20;5.50;;;;;;;6.65;95.87;100089.94;5096097;28;20047;-80
2022/04/26 05:43:06;;;;;;;;;;;;;;;6.74;94.69;100091.50;5095940;28;20470;-81
2022/04/26 05:45:31;;;;;;;11.27;4.43;;;;;;;6.76;95.39;100092.97;5095717;28;20433;-80
2022/04/26 05:47:57;;;;;;;10.90;4.83;;;;;;;6.93;93.87;100093.56;5096091;28;20259;-80
2022/04/26 05:50:22;;;;;;;11.55;5.68;;;;;;;6.76;93.29;100097.50;5097224;28;20444;-80
2022/04/26 05:52:48;;;;;;;11.70;5.03;;;;;;;6.75;92.50;100095.84;5096903;28;20512;-80
2022/04/26 05:55:13;;;;;;;14.43;5.90;;;;;;;6.68;91.59;100101.09;5095978;28;20257;-79
2022/04/26 05:57:40;;;;;;;12.93;5.57;;;;;;;6.80;92.93;100102.28;5095831;28;20066;-79
2022/04/26 06:00:07;;;;;;;9.63;4.90;;;;;;;7.05;93.65;100102.75;5096204;28;20270;-80
2022/04/26 06:02:32;;;;;;;11.10;5.03;;;;;;;7.10;91.50;100105.72;5096814;28;20039;-79
2022/04/26 06:04:58;;;;;;;14.40;5.50;;;;;;;7.07;92.15;100106.09;5096614;28;20043;-80
2022/04/26 06:07:23;;;;;;;11.80;5.47;;;;;;;7.07;91.73;100105.25;5078535;28;20036;-79
2022/04/26 06:09:50;;;;;;;15.17;5.47;;;;;;;6.97;92.10;100114.44;5078242;28;20027;-79
2022/04/26 06:12:15;;;;;;;16.27;6.00;;;;;;;7.05;91.71;100112.66;5096996;28;20028;-80
2022/04/26 06:14:41;;;;;;;11.45;5.28;;;;;;;7.19;91.18;100119.78;5096548;28;20042;-80
2022/04/26 06:17:06;;;;;;;14.93;5.38;;;;;;;7.14;91.06;100117.72;5079687;28;20473;-80
2022/04/26 06:19:32;;;;;;;11.67;4.73;;;;;;;7.31;91.69;100112.94;5080055;28;20036;-81
2022/04/26 06:21:57;;;;;;;13.15;5.72;;;;;;;7.30;90.37;100109.44;5080792;28;20052;-81
2022/04/26 06:24:23;;;;;;;11.30;5.43;;;;;;;7.18;90.69;100105.56;5098251;28;20477;-80
2022/04/26 06:26:49;;;;;;;10.27;5.22;;;;;;;7.11;91.12;100117.25;5080396;28;20020;-81
2022/04/26 06:29:14;;;;;;;17.37;5.97;;;;;;;7.11;89.53;100111.91;5098110;28;20024;-80
2022/04/26 06:31:39;;;;;;;12.70;5.80;;;;;;;7.04;89.78;100117.16;5079621;28;20095;-80
2022/04/26 06:34:04;;;;;;;15.23;5.82;;;;;;;7.07;89.51;100116.81;5079960;28;20485;-80
2022/04/26 06:36:30;;;;;;;10.23;5.83;;;;;;;6.98;89.98;100123.31;5098384;28;20083;-80
2022/04/26 06:38:55;;;;;;;11.10;5.70;;;;;;;6.90;90.07;100126.91;5098958;28;20043;-80
2022/04/26 06:41:21;;;;;;;12.77;5.43;;;;;;;6.97;90.13;100127.84;5098725;28;20039;-79
2022/04/26 06:43:46;;;;;;;10.13;5.05;;;;;;;6.98;91.28;100128.66;5098013;28;20100;-80
2022/04/26 06:46:11;;;;;;;11.73;5.23;;;;;;;7.01;90.91;100130.94;5099698;28;20114;-82
2022/04/26 06:48:37;;;;;;;12.17;5.00;;;;;;;6.99;91.17;100130.28;5081949;28;20032;-81
2022/04/26 06:51:02;;;;;;;13.43;6.17;;;;;;;7.05;90.11;100137.59;5099978;28;20095;-80
2022/04/26 06:53:27;;;;;;;18.00;7.67;;;;;;;7.12;90.02;100135.81;5100371;28;20036;-80
2022/04/26 06:55:53;;;;;;;11.93;4.97;;;;;;;7.13;90.48;100133.97;5100319;28;20475;-81
2022/04/26 06:58:19;;;;;;;11.60;5.27;;;;;;;7.27;90.30;100138.44;5099910;28;20040;-80
2022/04/26 07:00:46;;;;;;;12.60;5.35;;;;;;;7.36;90.88;100126.56;5097222;28;20099;-78
2022/04/26 07:03:12;;;;;;;18.55;5.93;;;;;;;7.39;89.56;100134.22;5078211;28;20032;-78
2022/04/26 07:05:37;;;;;;;14.73;6.00;;;;;;;7.28;89.63;100132.91;5096388;28;20039;-79
2022/04/26 07:08:03;;;;;;;16.43;6.30;;;;;;;7.44;90.07;100136.34;5097705;28;20040;-80
2022/04/26 07:10:28;;;;;;;15.50;6.55;;;;;;;7.44;90.11;100144.38;5100762;28;20028;-80
2022/04/26 07:12:54;;;;;;;16.60;6.88;;;;;;;7.37;90.07;100138.13;5081877;28;20105;-79
2022/04/26 07:15:20;;;;;;;15.00;6.70;;;;;;;7.65;90.32;100142.53;5103948;28;20082;-79
2022/04/26 07:17:45;;;;;;;17.67;7.88;;;;;;;7.55;89.39;100142.00;5083524;28;20047;-79
2022/04/26 07:20:13;;;;;;;18.63;7.30;;;;;;;7.53;88.92;100152.09;5098935;28;20071;-80
2022/04/26 07:22:38;;;;;;;19.80;10.13;;;;;;;7.57;88.38;100148.03;5081395;28;20748;-79
2022/04/26 07:25:06;;;;;;;15.57;7.32;;;;;;;7.45;88.70;100143.38;5098973;28;20078;-79
2022/04/26 07:27:34;;;;;;;20.58;8.43;;;;;;;7.41;89.12;100158.16;5097686;28;20036;-79
2022/04/26 07:30:00;;;;;;;20.92;9.18;;;;;;;7.32;89.60;100152.13;5078298;28;20027;-77
2022/04/26 07:35:11;;;;;;;18.23;9.43;;;;;;;7.51;90.04;100153.34;5095908;28;20101;-78
2022/04/26 07:37:40;;;;;;;22.05;9.43;;;;;;;7.79;90.06;100156.88;5096607;28;20347;-79
2022/04/26 07:40:07;;;;;;;25.13;9.75;;;;;;;7.92;87.83;100159.66;5096824;28;20398;-78
2022/04/26 07:42:32;;;;;;;18.42;9.73;;;;;;;7.73;87.51;100160.34;5096109;28;20139;-77
2022/04/26 07:44:58;;;;;;;23.57;11.83;;;;;;;7.63;87.73;100165.19;5096577;28;20462;-78
2022/04/26 07:47:26;;;;;;;23.42;11.23;;;;;;;7.74;88.57;100167.34;5079548;28;20021;-80
2022/04/26 07:49:52;;;;;;;28.00;11.18;;;;;;;7.90;88.23;100168.94;5083633;28;20035;-79
2022/04/26 07:52:18;;;;;;;;;;;;;;;7.96;87.41;100171.69;5101242;28;20031;-79
2022/04/26 07:54:45;;;;;;;25.13;9.68;;;;;;;7.98;88.08;100168.81;5102056;28;19908;-80
2022/04/26 07:57:11;;;;;;;26.10;10.98;;;;;;;7.99;88.31;100176.66;5083466;28;20146;-79
2022/04/26 07:59:36;;;;;;;21.97;9.93;;;;;;;7.95;87.70;100179.91;5099973;28;20067;-78
2022/04/26 08:02:01;;;;;;;21.70;9.43;;;;;;;8.03;87.86;100182.47;5101432;28;20028;-77
2022/04/26 08:04:27;;;;;;;20.00;9.80;;;;;;;7.95;88.27;100182.59;5099681;28;20055;-79
2022/04/26 08:06:52;;;;;;;23.85;11.48;;;;;;;7.97;88.52;100181.38;5100412;28;20097;-78
2022/04/26 08:09:17;;;;;;;26.00;12.03;;;;;;;8.09;88.32;100180.84;5082709;28;20039;-79
2022/04/26 08:11:43;;;;;;;27.70;12.32;;;;;;;8.24;87.81;100177.03;5101303;28;20020;-77
2022/04/26 08:14:08;;;;;;;24.97;11.73;;;;;;;8.45;87.36;100186.91;5097448;28;20028;-76
2022/04/26 08:16:33;;;;;;;28.63;13.77;;;;;;;8.78;85.61;100186.31;5097164;28;20300;-77
2022/04/26 08:18:59;;;;;;;24.20;11.27;;;;;;;8.95;86.76;100187.63;5097812;28;20031;-78
2022/04/26 08:21:24;;;;;;;27.88;12.48;;;;;;;9.00;85.19;100193.22;5099107;28;20127;-78
2022/04/26 08:29:19;;;;;;;26.58;12.75;;;;;;;8.84;85.11;100199.75;5100188;28;20035;-78
2022/04/26 08:31:55;;;;;;;24.48;12.27;;;;;;;8.81;85.78;100202.84;5082114;28;20424;-79
2022/04/26 08:34:24;;;;;;;27.83;11.73;;;;;;;8.83;85.49;100205.31;5097757;28;20032;-78
2022/04/26 08:36:49;;;;;;;23.73;11.52;;;;;;;8.81;85.57;100210.06;5097335;28;20145;-78
2022/04/26 08:39:15;;;;;;;26.52;11.95;;;;;;;8.85;84.55;100205.97;5079132;28;20028;-77
2022/04/26 08:41:40;;;;;;;24.48;11.32;;;;;;;8.89;84.37;100212.59;5096861;28;20395;-78
2022/04/26 08:44:11;;;;;;;27.05;11.70;;;;;;;9.03;84.68;100217.00;5078564;28;20103;-78
2022/04/26 08:52:06;;;;;;;26.10;11.43;;;;;;;9.55;83.21;100229.81;5097160;28;20094;-78
2022/04/26 08:54:32;;;;;;;22.88;10.93;;;;;;;9.76;82.67;100220.75;5096089;28;20036;-77
2022/04/26 08:56:57;;;;;;;;;;;;;;;9.91;81.25;100232.16;5096124;28;20036;-77
2022/04/26 08:59:22;;;;;;;25.67;11.02;;;;;;;9.85;80.97;100230.31;5095314;28;19915;-76
2022/04/26 09:01:48;;;;;;;22.03;11.17;;;;;;;9.94;80.02;100229.06;5095032;28;20117;-76
2022/04/26 09:04:15;;;;;;;23.27;11.10;;;;;;;9.94;79.36;100231.75;5094848;28;20823;-76
2022/04/26 09:06:43;;;;;;;25.70;11.60;;;;;;;10.10;78.96;100234.03;5095245;28;20020;-78
2022/04/26 09:09:14;;;;;;;22.75;11.15;;;;;;;10.07;78.19;100231.75;5095398;28;20031;-77
2022/04/26 09:11:41;;;;;;;21.73;10.77;;;;;;;10.08;78.45;100236.09;5095981;28;20028;-76
2022/04/26 09:14:10;;;;;;;20.38;10.80;;;;;;;10.17;78.54;100234.06;5096539;28;20031;-77
2022/04/26 09:16:35;;;;;;;22.27;11.38;;;;;;;10.21;77.98;100247.97;5077695;28;20114;-79
2022/04/26 09:19:09;;;;;;;24.20;11.70;;;;;;;10.46;78.44;100248.16;5096195;28;20500;-78
2022/04/26 09:21:36;;;;;;;18.85;9.52;;;;;;;10.62;76.44;100242.34;5095910;28;20043;-76
2022/04/26 09:24:07;;;;;;;19.35;10.32;;;;;;;10.54;77.26;100243.41;5094854;28;20050;-77
2022/04/26 09:26:40;;;;;;;20.58;10.77;;;;;;;10.69;75.72;100246.69;5077217;28;20085;-76
2022/04/26 09:29:06;;;;;;;17.65;10.13;;;;;;;10.60;76.23;100247.09;5094946;28;20277;-77
2022/04/26 09:31:39;;;;;;;17.63;10.50;;;;;;;10.40;76.99;100255.19;5094862;28;20027;-76
2022/04/26 09:34:12;;;;;;;15.38;8.43;;;;;;;10.43;77.05;100258.31;5094815;28;20024;-76
2022/04/26 09:36:48;;;;;;;17.42;8.73;;;;;;;10.54;77.29;100259.56;5094511;28;20027;-76
2022/04/26 09:39:24;;;;;;;15.65;8.63;;;;;;;10.52;76.94;100258.09;5094577;28;20028;-76
2022/04/26 09:41:51;;;;;;;18.80;9.90;;;;;;;10.62;75.86;100263.88;5094116;28;20481;-76
2022/04/26 09:44:16;;;;;;;14.52;8.18;;;;;;;10.53;75.73;100263.28;5095378;28;20023;-76
2022/04/26 09:46:46;;;;;;;18.40;8.60;;;;;;;10.56;75.70;100273.66;5095845;28;20131;-76
2022/04/26 09:49:18;;;;;;;14.23;8.40;;;;;;;10.61;75.08;100271.13;5094043;28;20028;-76
2022/04/26 09:51:44;;;;;;;13.50;7.32;;;;;;;10.70;74.59;100275.28;5094404;28;20054;-76
2022/04/26 09:54:10;;;;;;;14.95;7.93;;;;;;;10.63;75.53;100274.47;5094425;28;20031;-78
2022/04/26 09:56:35;;;;;;;16.48;8.30;;;;;;;10.94;73.92;100278.34;5096530;28;20107;-77
2022/04/26 09:59:03;;;;;;;15.60;7.82;;;;;;;10.99;73.95;100275.84;5095816;28;20036;-78
2022/04/26 10:01:40;;;;;;;18.33;8.52;;;;;;;11.19;73.95;100273.94;5095610;28;20471;-78
2022/04/26 10:04:08;;;;;;;14.07;7.40;;;;;;;11.51;73.17;100277.53;5096456;28;20133;-78
2022/04/26 10:06:35;;;;;;;16.08;7.72;;;;;;;11.73;71.33;100281.59;5094594;28;20065;-77
2022/04/26 10:09:03;;;;;;;17.58;8.43;;;;;;;11.57;71.94;100287.47;5094432;28;20075;-77
2022/04/26 10:11:30;;;;;;;15.20;8.05;;;;;;;11.65;71.43;100284.53;5093331;28;20086;-77
2022/04/26 10:13:56;;;;;;;18.20;7.68;;;;;;;11.74;70.42;100283.25;5093977;28;20028;-77
2022/04/26 10:16:22;;;;;;;12.68;7.20;;;;;;;11.72;70.44;100281.81;5076031;28;20100;-78
2022/04/26 10:18:48;;;;;;;;;;;;;;;11.71;70.73;100283.66;5095170;28;20027;-76
2022/04/26 10:21:22;;;;;;;12.77;6.82;;;;;;;11.83;71.34;100281.13;5075933;28;19915;-77
2022/04/26 10:23:50;;;;;;;14.50;6.65;;;;;;;11.84;70.31;100282.78;5097124;28;20051;-77
2022/04/26 10:28:52;;;;;;;14.45;6.68;;;;;;;12.22;68.69;100281.94;5094082;28;20036;-77
2022/04/26 10:31:32;;;;;;;15.63;7.40;;;;;;;12.39;68.27;100278.47;5094192;28;20336;-77
2022/04/26 10:33:58;;;;;;;11.55;6.05;;;;;;;12.68;67.19;100277.00;5075955;28;20052;-77
2022/04/26 10:36:27;;;;;;;14.82;7.03;;;;;;;12.90;66.72;100279.28;5093762;28;20032;-77
2022/04/26 10:39:12;;;;;;;14.27;6.80;;;;;;;13.31;66.35;100268.63;5093676;28;20542;-78
2022/04/26 10:41:43;;;;;;;11.40;6.15;;;;;;;12.72;66.80;100274.69;5093822;28;20368;-77
2022/04/26 10:44:17;;;;;;;13.90;7.50;;;;;;;12.71;66.58;100279.25;5094002;28;20028;-76
2022/04/26 10:46:44;;;;;;;13.23;6.15;;;;;;;12.70;67.06;100288.41;5093858;28;20085;-76
2022/04/26 10:49:25;;;;;;;12.75;6.72;;;;;;;12.78;67.08;100285.41;5093594;28;20107;-76
2022/04/26 10:51:57;;;;;;;11.82;6.32;;;;;;;12.81;67.45;100284.97;5093969;28;20093;-77
2022/04/26 10:57:26;;;;;;;12.38;7.25;;;;;;;12.58;67.86;100290.16;5093813;28;20028;-78
2022/04/26 10:59:57;;;;;;;11.52;6.43;;;;;;;12.52;67.41;100286.50;5075615;28;20040;-76
2022/04/26 11:02:25;;;;;;;13.80;6.35;;;;;;;12.69;67.79;100278.66;5095143;28;20032;-77
2022/04/26 11:04:59;;;;;;;12.40;6.25;;;;;;;12.72;66.92;100282.78;5093198;28;20043;-77
2022/04/26 11:07:29;;;;;;;11.98;6.47;;;;;;;12.78;67.62;100282.69;5094165;28;20036;-76
2022/04/26 11:09:59;;;;;;;10.90;6.40;;;;;;;12.64;66.68;100289.28;5075401;28;20040;-77
2022/04/26 11:12:26;;;;;;;12.63;6.78;;;;;;;12.72;65.41;100290.91;5094034;28;20059;-77
2022/04/26 11:14:57;;;;;;;15.07;7.03;;;;;;;12.86;66.03;100287.84;5094375;28;20020;-77
2022/04/26 11:17:24;;;;;;;13.95;6.47;;;;;;;12.98;64.64;100296.03;5094486;28;20070;-77
2022/04/26 11:19:53;;;;;;;12.32;6.95;;;;;;;13.03;65.34;100295.38;5094723;28;20028;-77
2022/04/26 11:22:19;;;;;;;12.60;6.97;;;;;;;13.06;65.09;100303.03;5095689;28;20107;-77
2022/04/26 11:30:24;;;;;;;12.95;7.32;;;;;;;12.94;66.29;100296.69;5096715;28;20120;-77
2022/04/26 11:32:49;;;;;;;14.32;7.88;;;;;;;12.94;66.75;100299.41;5096700;28;20385;-77
2022/04/26 11:35:16;;;;;;;13.05;6.88;;;;;;;12.86;65.96;100297.81;5079002;28;20024;-77
2022/04/26 11:37:48;;;;;;;14.45;7.53;;;;;;;12.73;66.13;100306.88;5097911;28;20054;-77
2022/04/26 11:40:28;;;;;;;15.38;7.90;;;;;;;12.66;65.94;100303.41;5079074;28;20374;-76
2022/04/26 11:42:57;;;;;;;16.27;7.55;;;;;;;12.63;66.41;100303.84;5097013;28;20125;-77
2022/04/26 11:45:23;;;;;;;14.13;7.28;;;;;;;12.52;68.22;100313.50;5078956;28;20062;-77
2022/04/26 11:47:50;;;;;;;14.35;7.95;;;;;;;12.58;69.08;100314.50;5097000;28;20032;-76
2022/04/26 11:50:17;;;;;;;15.30;8.02;;;;;;;12.49;68.88;100313.13;5096901;28;20028;-77
2022/04/26 11:52:43;;;;;;;16.23;8.02;;;;;;;12.32;68.75;100325.50;5097156;28;20110;-76
2022/04/26 11:55:25;;;;;;;17.25;8.35;;;;;;;12.03;71.59;100329.63;5096922;28;20486;-76
2022/04/26 11:57:51;;;;;;;15.60;8.48;;;;;;;11.93;72.27;100321.19;5096817;28;20051;-76
2022/04/26 12:00:19;;;;;;;14.13;7.90;;;;;;;11.85;71.60;100329.53;5096929;28;20028;-75
2022/04/26 12:02:47;;;;;;;16.00;8.70;;;;;;;12.02;72.68;100323.41;5097231;28;20032;-75
2022/04/26 12:05:14;;;;;;;16.58;8.48;;;;;;;12.08;71.91;100330.66;5079236;28;20044;-75
2022/04/26 12:07:39;;;;;;;13.93;7.47;;;;;;;12.16;71.29;100324.16;5098045;28;20032;-75
2022/04/26 12:10:28;;;;;;;17.17;8.32;;;;;;;12.27;70.76;100320.75;5097991;28;20093;-77
2022/04/26 12:12:56;;;;;;;14.10;7.60;;;;;;;12.26;69.47;100323.69;5085557;28;20043;-76
2022/04/26 12:15:29;;;;;;;14.50;7.88;;;;;;;12.22;69.29;100322.44;5090480;28;20024;-75
2022/04/26 12:18:14;;;;;;;14.40;7.45;;;;;;;12.24;69.63;100323.06;5102073;28;20459;-76
2022/04/26 12:21:02;;;;;;;14.27;8.15;;;;;;;12.29;68.54;100315.97;5098713;28;20034;-76
2022/04/26 12:23:27;;;;;;;;;;;;;;;12.28;68.55;100316.19;5097943;28;20116;-77
2022/04/26 12:26:04;;;;;;;14.48;7.63;;;;;;;12.36;67.79;100315.94;5096655;28;19959;-76
2022/04/26 12:28:30;;;;;;;16.85;7.60;;;;;;;12.75;70.89;100317.47;5078511;28;20028;-77
2022/04/26 12:30:57;;;;;;;12.27;6.85;;;;;;;12.78;67.22;100317.84;5096298;28;20119;-76
2022/04/26 12:33:34;;;;;;;13.98;7.38;;;;;;;13.06;66.08;100316.56;5096110;28;20464;-76
2022/04/26 12:36:05;;;;;;;11.48;6.55;;;;;;;14.09;62.26;100303.84;5077850;28;20035;-77
2022/04/26 12:38:43;;;;;;;12.35;7.28;;;;;;;15.11;58.19;100304.47;5096640;28;20032;-77
2022/04/26 12:41:09;;;;;;;13.73;7.45;;;;;;;14.94;57.84;100303.53;5096014;28;20035;-76
2022/04/26 12:43:34;;;;;;;13.93;7.30;;;;;;;14.49;60.44;100306.00;5095292;28;20031;-77
2022/04/26 12:46:02;;;;;;;12.57;6.63;;;;;;;14.26;61.40;100309.44;5095329;28;20254;-77
2022/04/26 12:51:17;;;;;;;11.75;6.50;;;;;;;13.67;66.65;100319.22;5095478;28;20097;-77
2022/04/26 12:53:42;;;;;;;13.02;7.28;;;;;;;13.23;66.19;100303.31;5095127;28;20024;-76
2022/04/26 12:56:10;;;;;;;12.82;7.32;;;;;;;12.99;68.70;100318.50;5095129;28;20051;-77
2022/04/26 12:58:41;;;;;;;13.30;7.07;;;;;;;12.77;68.24;100316.19;5095375;28;20058;-76
2022/04/26 13:01:07;;;;;;;12.68;7.32;;;;;;;12.68;68.05;100309.44;5077227;28;20080;-77
2022/04/26 13:03:36;;;;;;;13.35;7.43;;;;;;;12.74;67.57;100319.34;5094393;28;20382;-76
2022/04/26 13:06:08;;;;;;;13.95;7.63;;;;;;;12.75;67.84;100318.28;5077330;28;20028;-77
2022/04/26 13:08:34;;;;;;;15.60;8.20;;;;;;;12.87;66.70;100310.31;5095241;28;20032;-76
2022/04/26 13:11:00;;;;;;;14.32;6.85;;;;;;;13.07;67.25;100313.63;5095439;28;20035;-77
2022/04/26 13:13:27;;;;;;;;;;;;;;;13.05;65.14;100307.63;5095597;28;20044;-76
2022/04/26 13:15:53;;;;;;;14.43;7.47;;;;;;;13.09;65.56;100316.91;5077137;28;20401;-77
2022/04/26 13:18:18;;;;;;;;;;;;;;;13.18;64.78;100317.50;5094978;28;20076;-76
2022/04/26 13:20:45;;;;;;;13.85;6.32;;;;;;;13.14;63.51;100318.97;5094760;28;19908;-76
2022/04/26 13:23:11;;;;;;;12.05;6.95;;;;;;;13.37;64.72;100316.47;5094978;28;20359;-76
2022/04/26 13:25:37;;;;;;;11.70;6.85;;;;;;;13.84;63.01;100316.69;5095267;28;20423;-77
2022/04/26 13:28:03;;;;;;;12.67;7.13;;;;;;;14.12;62.99;100316.94;5094549;28;20100;-77
2022/04/26 13:30:28;;;;;;;13.07;7.10;;;;;;;14.11;61.02;100318.00;5094446;28;20024;-76
2022/04/26 13:32:54;;;;;;;12.95;6.53;;;;;;;13.95;60.88;100312.41;5094471;28;20039;-77
2022/04/26 13:35:20;;;;;;;;;;;;;;;13.62;61.77;100320.94;5077135;28;20035;-76
2022/04/26 13:37:46;;;;;;;9.55;5.55;;;;;;;13.45;62.28;100324.25;5076624;28;19912;-76
2022/04/26 13:40:12;;;;;;;12.75;6.80;;;;;;;13.33;63.20;100320.66;5094340;28;20036;-76
2022/04/26 13:42:37;;;;;;;11.10;5.80;;;;;;;13.15;62.51;100323.34;5094813;28;20091;-76
2022/04/26 13:45:03;;;;;;;10.27;5.53;;;;;;;13.15;62.62;100318.78;5075927;28;20115;-77
2022/04/26 13:47:29;;;;;;;13.02;5.50;;;;;;;13.14;62.35;100324.38;5075610;28;20473;-76
2022/04/26 13:49:54;;;;;;;10.75;5.57;;;;;;;13.08;61.84;100325.25;5094620;28;20024;-76
2022/04/26 13:52:20;;;;;;;11.20;5.82;;;;;;;12.99;62.27;100330.16;5095084;28;20111;-76
2022/04/26 13:54:46;;;;;;;10.20;4.72;;;;;;;12.91;61.79;100326.88;5076002;28;20035;-76
2022/04/26 13:57:12;;;;;;;11.52;5.07;;;;;;;12.92;62.48;100336.66;5075604;28;20085;-76
2022/04/26 13:59:38;;;;;;;11.00;5.43;;;;;;;12.91;62.59;100329.59;5076303;28;20032;-77
2022/04/26 14:02:05;;;;;;;12.13;5.75;;;;;;;12.93;62.00;100330.19;5094093;28;20047;-76
2022/04/26 14:04:30;;;;;;;10.43;6.15;;;;;;;12.93;61.68;100325.63;5093941;28;20393;-76
2022/04/26 14:06:55;;;;;;;10.68;5.07;;;;;;;12.93;61.45;100333.72;5093868;28;20028;-77
2022/04/26 14:09:22;;;;;;;8.38;4.63;;;;;;;12.93;61.49;100335.59;5093871;28;20036;-76
2022/04/26 14:11:47;;;;;;;10.38;5.00;;;;;;;12.90;60.62;100339.56;5093939;28;20129;-76
2022/04/26 14:22:35;;;;;;;8.77;4.90;;;;;;;12.96;62.09;100346.81;5038902;28;20399;-76
2022/04/26 14:25:08;;;;;;;9.82;4.70;;;;;;;12.91;63.20;100351.22;5093409;28;20107;-77
2022/04/26 14:27:33;;;;;;;9.38;4.78;;;;;;;13.01;63.82;100348.84;5093783;28;20036;-77
2022/04/26 14:29:59;;;;;;;9.27;5.13;;;;;;;13.08;61.85;100349.59;5075942;28;20036;-77
2022/04/26 14:32:24;;;;;;;;;;;;;;;13.10;61.43;100350.22;5094434;28;20088;-77
2022/04/26 14:34:50;;;;;;;14.48;4.85;;;;;;;13.12;60.35;100356.22;5093810;28;20297;-77
2022/04/26 14:37:15;;;;;;;;;;;;;;;13.11;60.40;100354.56;5094596;28;20024;-77
2022/04/26 14:39:41;;;;;;;9.77;4.57;;;;;;;13.07;58.82;100346.09;5093893;28;19915;-76
2022/04/26 14:42:06;;;;;;;9.60;4.75;;;;;;;12.99;58.94;100353.66;5094017;28;20031;-77
2022/04/26 14:44:32;;;;;;;;;;;;;;;13.12;58.94;100357.06;5094506;28;20498;-77
2022/04/26 14:46:57;;;;;;;8.55;4.35;;;;;;;13.12;57.79;100345.41;5094018;28;19912;-77
2022/04/26 14:49:23;;;;;;;7.40;4.28;;;;;;;13.17;59.62;100351.03;5093878;28;20371;-77
2022/04/26 14:51:48;;;;;;;;;;;;;;;13.20;59.48;100356.81;5094521;28;20032;-77
2022/04/26 14:54:14;;;;;;;9.43;4.05;;;;;;;13.32;59.17;100356.88;5094171;28;19908;-77
2022/04/26 14:56:40;;;;;;;10.35;5.93;;;;;;;13.03;65.63;100358.41;5094011;28;20094;-76
2022/04/26 14:59:07;;;;;;;13.03;6.67;;;;;;;12.74;68.09;100359.88;5097774;28;20432;-76
2022/04/26 15:01:33;;;;;;;11.27;6.45;;;;;;;12.51;69.03;100355.09;5097819;28;20254;-76
2022/04/26 15:03:59;;;;;;;13.05;6.38;;;;;;;12.55;67.61;100355.47;5097860;28;20150;-76
2022/04/26 15:06:25;;;;;;;12.25;6.45;;;;;;;12.77;67.91;100353.22;5098012;28;20108;-76
2022/04/26 15:11:37;;;;;;;10.95;6.38;;;;;;;12.86;67.28;100358.16;5097926;28;20080;-76
2022/04/26 15:16:49;;;;;;;10.73;5.50;;;;;;;13.10;61.79;100344.81;5098145;28;20027;-76
2022/04/26 15:19:15;;;;;;;9.98;4.72;;;;;;;13.29;60.94;100342.97;5097643;28;20058;-76
2022/04/26 15:21:43;;;;;;;7.57;4.45;;;;;;;13.37;58.03;100345.41;5097656;28;20032;-76
2022/04/26 15:24:09;;;;;;;8.70;4.18;;;;;;;13.47;57.32;100348.41;5097673;28;20085;-76
2022/04/26 15:26:36;;;;;;;6.50;3.70;;;;;;;13.69;56.21;100349.59;5097881;28;20099;-76
2022/04/26 15:29:03;;;;;;;7.28;3.85;;;;;;;13.66;55.25;100354.63;5097596;28;20024;-76
2022/04/26 15:31:28;;;;;;;6.70;3.22;;;;;;;13.67;56.13;100353.59;5078827;28;20081;-76
2022/04/26 15:33:53;;;;;;;7.10;3.58;;;;;;;13.65;55.95;100359.22;5096969;28;20028;-76
2022/04/26 15:36:19;;;;;;;;;;;;;;;13.48;55.78;100360.88;5097879;28;20036;-76
2022/04/26 15:38:45;;;;;;;6.45;3.40;;;;;;;13.59;57.06;100352.03;5096730;28;20342;-76
2022/04/26 15:41:11;;;;;;;;;;;;;;;13.44;56.02;100359.66;5097625;28;20432;-76
2022/04/26 15:43:37;;;;;;;7.85;3.50;;;;;;;13.48;55.73;100359.00;5097214;28;19908;-76